createdAt,value
2022-11-14T00:01:30.893Z,20.13
2022-11-14T00:04:34.881Z,21.23
2022-11-14T00:07:55.999Z,19.52
2022-11-14T00:11:00.290Z,19.88
2022-11-14T00:14:05.020Z,19.98
2022-11-14T00:17:13.362Z,20.13
2022-11-14T00:20:25.958Z,18.70
2022-11-14T00:23:30.321Z,19.25
2022-11-14T00:26:36.118Z,19.17
2022-11-14T00:29:40.898Z,18.17
2022-11-14T00:32:45.034Z,15.37
2022-11-14T00:35:56.422Z,17.83
2022-11-14T00:39:18.878Z,18.10
2022-11-14T00:42:25.859Z,16.65
2022-11-14T00:45:30.224Z,17.25
2022-11-14T00:48:36.918Z,18.40
2022-11-14T00:51:41.154Z,17.17
2022-11-14T00:54:45.752Z,17.35
2022-11-14T00:57:50.433Z,17.85
2022-11-14T01:00:57.514Z,18.13
2022-11-14T01:04:02.443Z,17.67
2022-11-14T01:07:06.745Z,18.50
2022-11-14T01:10:10.995Z,16.80
2022-11-14T01:13:17.501Z,17.50
2022-11-14T01:16:22.003Z,18.42
2022-11-14T01:19:26.686Z,16.85
2022-11-14T01:22:31.148Z,17.83
2022-11-14T01:25:37.233Z,16.63
2022-11-14T01:28:42.067Z,18.08
2022-11-14T01:31:46.515Z,17.95
2022-11-14T01:34:50.863Z,17.50
2022-11-14T01:37:55.322Z,17.25
2022-11-14T01:41:00.357Z,17.38
2022-11-14T01:44:37.874Z,17.90
2022-11-14T01:47:42.060Z,18.70
2022-11-14T01:50:47.845Z,18.92
2022-11-14T01:53:58.700Z,17.80
2022-11-14T01:57:04.811Z,18.38
2022-11-14T02:00:12.150Z,18.77
2022-11-14T02:03:17.192Z,19.23
2022-11-14T02:06:23.791Z,18.85
2022-11-14T02:09:38.898Z,19.70
2022-11-14T02:12:44.614Z,19.47
2022-11-14T02:15:49.039Z,19.65
2022-11-14T02:18:53.724Z,22.45
2022-11-14T02:21:57.947Z,21.63
2022-11-14T02:25:02.944Z,21.40
2022-11-14T02:28:09.454Z,21.95
2022-11-14T02:31:18.628Z,21.77
2022-11-14T02:34:22.901Z,22.92
2022-11-14T02:37:27.211Z,21.70
2022-11-14T02:40:34.835Z,22.77
2022-11-14T02:43:39.235Z,23.88
2022-11-14T02:46:43.629Z,23.23
2022-11-14T02:49:47.985Z,24.02
2022-11-14T02:52:54.061Z,23.45
2022-11-14T02:55:58.833Z,23.58
2022-11-14T02:59:02.845Z,25.40
2022-11-14T03:02:07.426Z,24.05
2022-11-14T03:05:11.685Z,24.50
2022-11-14T03:08:15.937Z,25.27
2022-11-14T03:11:20.505Z,25.15
2022-11-14T03:14:29.907Z,26.80
2022-11-14T03:17:34.674Z,24.83
2022-11-14T03:20:39.030Z,26.80
2022-11-14T03:23:43.518Z,26.67
2022-11-14T03:26:47.498Z,26.00
2022-11-14T03:29:52.052Z,27.42
2022-11-14T03:32:57.785Z,29.25
2022-11-14T03:36:02.870Z,29.83
2022-11-14T03:39:07.172Z,28.75
2022-11-14T03:42:11.457Z,30.15
2022-11-14T03:45:21.723Z,32.83
2022-11-14T03:48:26.732Z,32.67
2022-11-14T03:51:31.924Z,33.55
2022-11-14T03:54:36.189Z,35.40
2022-11-14T03:57:40.747Z,35.30
2022-11-14T04:00:45.160Z,35.42
2022-11-14T04:03:49.909Z,37.15
2022-11-14T04:06:54.253Z,37.70
2022-11-14T04:09:58.468Z,38.35
2022-11-14T04:13:04.887Z,40.25
2022-11-14T04:16:08.867Z,40.45
2022-11-14T04:19:13.398Z,38.17
2022-11-14T04:22:20.298Z,40.83
2022-11-14T04:25:30.920Z,39.58
2022-11-14T04:28:35.121Z,42.03
2022-11-14T04:31:39.733Z,42.58
2022-11-14T04:34:44.143Z,40.78
2022-11-14T04:37:48.524Z,42.60
2022-11-14T04:40:53.562Z,41.42
2022-11-14T04:43:57.897Z,44.75
2022-11-14T04:47:02.268Z,45.53
2022-11-14T04:50:07.166Z,46.17
2022-11-14T04:53:11.549Z,44.53
2022-11-14T04:56:17.406Z,46.35
2022-11-14T04:59:24.308Z,46.25
2022-11-14T05:02:31.746Z,47.83
2022-11-14T05:05:40.682Z,47.47
2022-11-14T05:08:45.906Z,45.90
2022-11-14T05:11:50.154Z,48.90
2022-11-14T05:14:54.450Z,49.33
2022-11-14T05:17:58.978Z,50.17
2022-11-14T05:21:03.986Z,48.22
2022-11-14T05:24:33.105Z,48.40
2022-11-14T05:27:37.558Z,50.17
2022-11-14T05:30:42.188Z,51.67
2022-11-14T05:33:49.293Z,50.70
2022-11-14T05:36:53.750Z,51.60
2022-11-14T05:39:57.818Z,52.63
2022-11-14T05:43:04.862Z,53.22
2022-11-14T05:46:12.474Z,55.80
2022-11-14T05:49:22.072Z,52.15
2022-11-14T05:52:27.867Z,54.20
2022-11-14T05:55:32.222Z,53.53
2022-11-14T05:58:36.662Z,55.35
2022-11-14T06:01:43.087Z,54.13
2022-11-14T06:04:47.669Z,54.67
2022-11-14T06:07:58.828Z,55.85
2022-11-14T06:11:05.241Z,54.40
2022-11-14T06:14:10.907Z,55.83
2022-11-14T06:17:15.450Z,57.80
2022-11-14T06:20:20.109Z,54.90
2022-11-14T06:23:25.061Z,54.80
2022-11-14T06:26:31.595Z,56.17
2022-11-14T06:29:36.319Z,55.42
2022-11-14T06:32:40.478Z,56.22
2022-11-14T06:35:48.324Z,56.38
2022-11-14T06:38:52.961Z,56.67
2022-11-14T06:41:56.914Z,55.05
2022-11-14T06:45:01.406Z,56.20
2022-11-14T06:48:05.986Z,56.22
2022-11-14T06:51:12.410Z,57.77
2022-11-14T06:54:17.072Z,58.30
2022-11-14T06:57:21.379Z,58.97
2022-11-14T07:00:25.639Z,57.28
2022-11-14T07:03:30.358Z,57.90
2022-11-14T07:06:34.928Z,57.63
2022-11-14T07:09:39.506Z,54.95
2022-11-14T07:12:43.635Z,58.05
2022-11-14T07:15:54.642Z,59.75
2022-11-14T07:19:00.298Z,58.22
2022-11-14T07:22:04.603Z,56.30
2022-11-14T07:25:09.283Z,60.38
2022-11-14T07:28:16.410Z,58.78
2022-11-14T07:31:21.486Z,59.03
2022-11-14T07:34:25.653Z,59.88
2022-11-14T07:37:30.139Z,57.65
2022-11-14T07:40:34.703Z,59.85
2022-11-14T07:43:39.900Z,58.20
2022-11-14T07:46:47.162Z,57.53
2022-11-14T07:49:51.352Z,53.33
2022-11-14T07:52:57.682Z,53.72
2022-11-14T07:56:05.826Z,51.45
2022-11-14T07:59:10.083Z,52.53
2022-11-14T08:02:15.178Z,51.05
2022-11-14T08:05:21.649Z,52.13
2022-11-14T08:08:25.721Z,48.38
2022-11-14T08:11:48.281Z,46.85
2022-11-14T08:14:52.591Z,47.45
2022-11-14T08:18:03.870Z,43.50
2022-11-14T08:21:08.023Z,40.92
2022-11-14T08:24:12.033Z,41.05
2022-11-14T08:27:16.630Z,38.00
2022-11-14T08:30:20.974Z,35.92
2022-11-14T08:33:25.483Z,36.45
2022-11-14T08:36:30.644Z,35.00
2022-11-14T08:39:34.943Z,32.13
2022-11-14T08:42:39.965Z,31.07
2022-11-14T08:45:44.350Z,30.10
2022-11-14T08:48:49.354Z,28.00
2022-11-14T08:51:53.865Z,27.05
2022-11-14T08:54:57.918Z,26.15
2022-11-14T08:58:05.243Z,26.10
2022-11-14T09:01:10.350Z,25.60
2022-11-14T09:04:14.901Z,25.40
2022-11-14T09:07:19.337Z,25.38
2022-11-14T09:10:23.563Z,25.27
2022-11-14T09:13:28.459Z,25.90
2022-11-14T09:16:33.926Z,23.50
2022-11-14T09:19:41.066Z,23.23
2022-11-14T09:22:48.225Z,23.73
2022-11-14T09:25:54.746Z,23.70
2022-11-14T09:29:00.535Z,23.42
2022-11-14T09:35:09.283Z,21.83
2022-11-14T09:38:13.481Z,20.77
2022-11-14T09:41:55.107Z,22.90
2022-11-14T09:45:12.166Z,19.92
2022-11-14T09:48:21.136Z,20.27
2022-11-14T09:51:30.270Z,20.42
2022-11-14T09:54:55.355Z,20.00
2022-11-14T09:58:06.579Z,19.52
2022-11-14T10:01:23.119Z,18.55
2022-11-14T10:04:58.863Z,19.27
2022-11-14T10:08:22.980Z,17.88
2022-11-14T10:11:43.604Z,17.27
2022-11-14T10:15:06.618Z,16.48
2022-11-14T10:18:36.679Z,16.38
2022-11-14T10:21:53.448Z,16.95
2022-11-14T10:25:07.711Z,17.05
2022-11-14T10:28:32.328Z,15.90
2022-11-14T10:32:07.431Z,14.73
2022-11-14T10:35:37.965Z,15.90
2022-11-14T10:39:01.086Z,15.95
2022-11-14T10:42:13.966Z,14.65
2022-11-14T10:45:36.081Z,14.10
2022-11-14T10:48:44.452Z,14.18
2022-11-14T10:51:57.280Z,14.05
2022-11-14T10:55:08.327Z,13.98
2022-11-14T10:58:14.798Z,14.10
2022-11-14T11:01:51.107Z,13.07
2022-11-14T11:05:12.789Z,11.57
2022-11-14T11:08:44.355Z,12.00
2022-11-14T11:11:57.842Z,10.43
2022-11-14T11:15:22.250Z,10.05
2022-11-14T11:18:51.130Z,8.90
2022-11-14T11:21:55.402Z,9.48
2022-11-14T11:24:59.474Z,9.60
2022-11-14T11:28:11.434Z,9.27
2022-11-14T11:31:16.348Z,8.68
2022-11-14T11:34:47.543Z,8.68
2022-11-14T11:38:00.107Z,8.93
2022-11-14T11:42:06.209Z,8.63
2022-11-14T11:44:58.693Z,8.55
2022-11-14T11:48:23.234Z,7.45
2022-11-14T11:51:28.526Z,8.20
2022-11-14T11:55:13.122Z,7.63
2022-11-14T11:58:29.614Z,7.18
2022-11-14T12:01:33.840Z,7.25
2022-11-14T12:04:38.150Z,7.57
2022-11-14T12:07:57.195Z,7.53
2022-11-14T12:11:04.201Z,7.82
2022-11-14T12:14:48.485Z,7.78
2022-11-14T12:18:23.703Z,7.75
2022-11-14T12:22:07.826Z,7.45
2022-11-14T12:25:43.981Z,7.80
2022-11-14T12:28:58.978Z,7.50
2022-11-14T12:32:07.782Z,7.57
2022-11-14T12:35:23.910Z,7.55
2022-11-14T12:38:35.895Z,7.47
2022-11-14T12:41:41.523Z,7.85
2022-11-14T12:44:46.851Z,7.40
2022-11-14T12:48:25.541Z,7.38
2022-11-14T12:51:50.267Z,7.10
2022-11-14T12:54:57.580Z,6.90
2022-11-14T12:58:04.540Z,8.68
2022-11-14T13:01:25.029Z,7.80
2022-11-14T13:04:46.157Z,7.72
2022-11-14T13:08:03.497Z,7.80
2022-11-14T13:11:53.581Z,7.65
2022-11-14T13:15:36.655Z,7.75
2022-11-14T13:19:12.957Z,7.90
2022-11-14T13:25:24.822Z,7.45
2022-11-14T13:28:38.475Z,7.95
2022-11-14T13:31:46.995Z,7.65
2022-11-14T13:35:03.919Z,7.55
2022-11-14T13:38:35.784Z,7.05
2022-11-14T13:42:14.043Z,8.30
2022-11-14T13:45:41.936Z,8.77
2022-11-14T13:49:32.709Z,9.00
2022-11-14T13:52:46.175Z,8.40
2022-11-14T13:56:14.548Z,8.52
2022-11-14T13:59:30.487Z,9.45
2022-11-14T14:03:10.336Z,9.30
2022-11-14T14:06:41.761Z,9.73
2022-11-14T14:09:58.335Z,10.13
2022-11-14T14:13:33.925Z,10.05
2022-11-14T14:16:58.623Z,9.77
2022-11-14T14:20:30.745Z,10.75
2022-11-14T14:23:46.378Z,10.27
2022-11-14T14:27:11.378Z,9.85
2022-11-14T14:30:19.598Z,9.95
2022-11-14T14:33:26.496Z,9.98
2022-11-14T14:36:31.772Z,9.40
2022-11-14T14:42:45.350Z,10.25
2022-11-14T14:45:53.297Z,11.25
2022-11-14T14:49:01.610Z,11.63
2022-11-14T14:52:38.148Z,11.32
2022-11-14T14:58:46.028Z,11.52
2022-11-14T15:01:50.517Z,15.57
2022-11-14T15:05:01.638Z,23.33
2022-11-14T15:08:05.923Z,25.02
2022-11-14T15:11:10.146Z,25.05
2022-11-14T15:14:19.326Z,25.55
2022-11-14T15:17:24.206Z,26.00
2022-11-14T15:20:29.772Z,28.03
2022-11-14T15:23:33.868Z,29.73
2022-11-14T15:26:38.627Z,29.65
2022-11-14T15:29:56.269Z,31.10
2022-11-14T15:33:25.910Z,32.70
2022-11-14T15:36:30.193Z,31.95
2022-11-14T15:39:35.031Z,36.17
2022-11-14T15:42:39.367Z,36.70
2022-11-14T15:45:43.801Z,37.00
2022-11-14T15:48:48.107Z,38.20
2022-11-14T15:51:58.246Z,38.17
2022-11-14T15:55:03.644Z,37.00
2022-11-14T16:01:39.054Z,35.17
2022-11-14T16:04:47.573Z,36.88
2022-11-14T16:07:52.602Z,39.17
2022-11-14T16:10:56.879Z,37.28
2022-11-14T16:14:01.314Z,38.47
2022-11-14T16:17:16.798Z,37.92
2022-11-14T16:20:26.786Z,40.25
2022-11-14T16:23:31.347Z,40.63
2022-11-14T16:26:38.718Z,39.13
2022-11-14T16:29:43.157Z,42.72
2022-11-14T16:32:48.722Z,41.50
2022-11-14T16:35:52.895Z,41.08
2022-11-14T16:39:04.126Z,42.40
2022-11-14T16:42:11.169Z,41.13
2022-11-14T16:45:17.144Z,40.22
2022-11-14T16:48:22.461Z,41.35
2022-11-14T16:51:47.939Z,41.00
2022-11-14T16:54:51.593Z,39.97
2022-11-14T16:57:56.194Z,39.28
2022-11-14T17:01:00.716Z,38.83
2022-11-14T17:04:05.589Z,39.67
2022-11-14T17:07:10.729Z,39.40
2022-11-14T17:10:14.678Z,39.80
2022-11-14T17:13:24.289Z,38.50
2022-11-14T17:16:28.641Z,38.70
2022-11-14T17:19:33.250Z,38.75
2022-11-14T17:22:37.758Z,39.35
2022-11-14T17:25:42.203Z,39.33
2022-11-14T17:28:46.283Z,39.83
2022-11-14T17:31:50.571Z,39.53
2022-11-14T17:34:55.122Z,39.00
2022-11-14T17:38:00.443Z,38.88
2022-11-14T17:41:06.172Z,39.20
2022-11-14T17:44:13.290Z,39.95
2022-11-14T17:47:17.738Z,39.05
2022-11-14T17:50:22.213Z,41.73
2022-11-14T17:53:26.431Z,40.03
2022-11-14T17:56:31.033Z,40.75
2022-11-14T17:59:36.513Z,38.13
2022-11-14T18:02:41.163Z,38.55
2022-11-14T18:05:48.248Z,36.75
2022-11-14T18:08:52.771Z,34.65
2022-11-14T18:11:57.156Z,37.47
2022-11-14T18:15:05.460Z,34.63
2022-11-14T18:18:09.614Z,31.30
2022-11-14T18:21:17.076Z,32.85
2022-11-14T18:24:21.937Z,30.95
2022-11-14T18:27:26.271Z,30.90
2022-11-14T18:30:45.518Z,30.88
2022-11-14T18:33:49.712Z,31.38
2022-11-14T18:36:54.546Z,31.35
2022-11-14T18:39:58.823Z,31.65
2022-11-14T18:43:03.701Z,31.38
2022-11-14T18:46:17.167Z,32.40
2022-11-14T18:49:21.766Z,31.88
2022-11-14T18:52:26.266Z,32.85
2022-11-14T18:55:30.231Z,30.60
2022-11-14T18:58:35.983Z,29.75
2022-11-14T19:01:40.456Z,28.58
2022-11-14T19:04:44.342Z,27.48
2022-11-14T19:07:52.120Z,28.40
2022-11-14T19:11:03.940Z,27.83
2022-11-14T19:14:08.106Z,29.52
2022-11-14T19:17:13.461Z,30.42
2022-11-14T19:20:17.794Z,33.67
2022-11-14T19:23:22.065Z,34.45
2022-11-14T19:26:27.360Z,37.67
2022-11-14T19:29:31.602Z,36.33
2022-11-14T19:32:36.019Z,37.13
2022-11-14T19:35:40.452Z,36.05
2022-11-14T19:38:44.590Z,36.20
2022-11-14T19:41:48.699Z,36.13
2022-11-14T19:44:53.290Z,37.58
2022-11-14T19:47:57.794Z,37.55
2022-11-14T19:51:07.990Z,34.58
2022-11-14T19:54:12.276Z,35.25
2022-11-14T19:57:16.550Z,34.60
2022-11-14T20:00:20.810Z,34.47
2022-11-14T20:03:27.015Z,35.72
2022-11-14T20:06:34.209Z,34.15
2022-11-14T20:09:39.349Z,32.95
2022-11-14T20:12:43.891Z,32.50
2022-11-14T20:15:48.187Z,33.83
2022-11-14T20:18:58.645Z,34.55
2022-11-14T20:22:10.182Z,34.65
2022-11-14T20:25:16.201Z,33.13
2022-11-14T20:28:20.020Z,36.25
2022-11-14T20:31:27.505Z,35.63
2022-11-14T20:34:32.173Z,35.10
2022-11-14T20:37:36.056Z,37.42
2022-11-14T20:40:43.178Z,36.03
2022-11-14T20:43:48.055Z,34.70
2022-11-14T20:46:51.941Z,36.55
2022-11-14T20:49:56.514Z,36.70
2022-11-14T20:53:00.830Z,37.40
2022-11-14T20:56:05.204Z,39.55
2022-11-14T20:59:09.370Z,40.40
2022-11-14T21:02:14.838Z,40.90
2022-11-14T21:05:19.054Z,42.55
2022-11-14T21:08:45.652Z,42.42
2022-11-14T21:11:48.643Z,42.97
2022-11-14T21:14:52.926Z,43.75
2022-11-14T21:18:00.291Z,45.42
2022-11-14T21:21:10.671Z,45.95
2022-11-14T21:24:14.961Z,46.53
2022-11-14T21:27:19.135Z,48.28
2022-11-14T21:30:23.539Z,47.58
2022-11-14T21:33:29.447Z,48.67
2022-11-14T21:36:49.160Z,46.10
2022-11-14T21:39:53.302Z,47.00
2022-11-14T21:42:57.511Z,47.92
2022-11-14T21:46:07.166Z,45.92
2022-11-14T21:49:11.049Z,47.38
2022-11-14T21:52:15.478Z,45.28
2022-11-14T21:55:22.482Z,46.55
2022-11-14T21:58:32.630Z,47.55
2022-11-14T22:01:55.484Z,47.78
2022-11-14T22:05:00.030Z,47.28
2022-11-14T22:08:04.302Z,47.42
2022-11-14T22:11:08.725Z,49.22
2022-11-14T22:14:12.947Z,50.28
2022-11-14T22:17:17.628Z,47.92
2022-11-14T22:20:23.306Z,49.13
2022-11-14T22:23:31.174Z,50.83
2022-11-14T22:26:39.755Z,49.47
2022-11-14T22:29:44.208Z,47.45
2022-11-14T22:32:51.230Z,48.50
2022-11-14T22:36:07.357Z,48.13
2022-11-14T22:39:11.290Z,49.05
2022-11-14T22:42:15.709Z,48.50
2022-11-14T22:45:20.261Z,49.90
2022-11-14T22:48:25.960Z,51.20
2022-11-14T22:51:32.859Z,52.10
2022-11-14T22:54:40.452Z,51.97
2022-11-14T22:57:47.846Z,50.20
2022-11-14T23:00:52.713Z,51.45
2022-11-14T23:04:02.435Z,52.87
2022-11-14T23:07:06.845Z,50.78
2022-11-14T23:10:11.379Z,50.83
2022-11-14T23:13:15.642Z,52.90
2022-11-14T23:16:25.854Z,51.13
2022-11-14T23:19:29.927Z,52.03
2022-11-14T23:22:34.507Z,51.35
2022-11-14T23:25:38.867Z,56.30
2022-11-14T23:28:43.937Z,54.00
2022-11-14T23:31:48.356Z,55.10
2022-11-14T23:34:52.482Z,55.05
2022-11-14T23:37:56.610Z,56.45
2022-11-14T23:41:01.924Z,56.55
2022-11-14T23:44:06.249Z,56.22
2022-11-14T23:47:13.742Z,56.40
2022-11-14T23:50:18.133Z,56.78
2022-11-14T23:53:22.383Z,58.83
2022-11-14T23:56:26.930Z,55.72
2022-11-14T23:59:31.100Z,56.35
